Time;durP1;ratioP1;P1;durP2;ratioP2;P2;SDS_P1;SDS_P2;PMS_P1;PMS_P2;Temp;Humidity;BMP_temperature;BMP_pressure;BME280_temperature;BME280_humidity;BME280_pressure;Samples;Min_cycle;Max_cycle;Signal;HPM_P1;HPM_P2
2023/11/02 00:00:34;;;;;;;12.43;11.40;;;;;;;;;;4937441;29;20997;-43
2023/11/02 00:03:00;;;;;;;12.73;11.60;;;;;;;;;;4938088;29;20474;-43
2023/11/02 00:05:41;;;;;;;11.83;10.80;;;;;;;;;;4938360;29;20411;-43
2023/11/02 00:08:08;;;;;;;11.40;10.33;;;;;;;;;;4941846;29;20535;-42
2023/11/02 00:10:34;;;;;;;11.47;10.40;;;;;;;;;;4937299;29;20447;-43
2023/11/02 00:13:02;;;;;;;12.33;11.23;;;;;;;;;;4937928;29;20420;-43
2023/11/02 00:15:28;;;;;;;12.77;11.63;;;;;;;;;;4938134;29;20425;-43
2023/11/02 00:17:58;;;;;;;11.50;10.43;;;;;;;;;;4937772;29;20426;-43
2023/11/02 00:20:34;;;;;;;12.00;11.00;;;;;;;;;;4937348;29;20470;-43
2023/11/02 00:23:01;;;;;;;11.70;10.60;;;;;;;;;;4937902;29;20440;-43
2023/11/02 00:25:39;;;;;;;10.87;9.87;;;;;;;;;;4937782;29;20443;-43
2023/11/02 00:28:08;;;;;;;12.27;11.17;;;;;;;;;;4938107;29;20459;-43
2023/11/02 00:30:36;;;;;;;12.73;11.63;;;;;;;;;;4936875;29;20438;-43
2023/11/02 00:33:02;;;;;;;13.17;11.97;;;;;;;;;;4937642;29;20462;-43
2023/11/02 00:35:28;;;;;;;12.77;11.73;;;;;;;;;;4937550;29;20415;-44
2023/11/02 00:37:54;;;;;;;14.10;12.90;;;;;;;;;;4937457;29;20484;-43
2023/11/02 00:40:20;;;;;;;14.90;13.80;;;;;;;;;;4936741;29;20465;-43
2023/11/02 00:42:48;;;;;;;13.40;12.30;;;;;;;;;;4936280;29;20426;-43
2023/11/02 00:45:14;;;;;;;15.67;14.47;;;;;;;;;;4937387;29;20497;-43
2023/11/02 00:47:41;;;;;;;13.30;12.17;;;;;;;;;;4937502;29;20960;-43
2023/11/02 00:50:27;;;;;;;13.37;12.27;;;;;;;;;;4936870;29;20439;-43
2023/11/02 00:52:53;;;;;;;14.27;13.17;;;;;;;;;;4936054;29;20407;-43
2023/11/02 00:55:48;;;;;;;9.43;8.47;;;;;;;;;;4937406;29;20417;-43
2023/11/02 00:58:16;;;;;;;10.67;9.63;;;;;;;;;;4938978;29;20467;-43
2023/11/02 01:00:42;;;;;;;10.40;9.40;;;;;;;;;;4936427;29;20445;-43
2023/11/02 01:03:08;;;;;;;10.27;9.33;;;;;;;;;;4937163;29;20744;-44
2023/11/02 01:05:34;;;;;;;10.83;9.83;;;;;;;;;;4936945;29;20423;-43
2023/11/02 01:08:00;;;;;;;11.10;10.07;;;;;;;;;;4936812;29;20460;-43
2023/11/02 01:10:27;;;;;;;9.83;8.93;;;;;;;;;;4936529;29;20431;-43
2023/11/02 01:12:54;;;;;;;11.33;10.33;;;;;;;;;;4937289;29;20418;-43
2023/11/02 01:15:49;;;;;;;11.33;10.30;;;;;;;;;;4936873;29;20416;-43
2023/11/02 01:18:15;;;;;;;11.33;10.33;;;;;;;;;;4933785;29;20492;-43
2023/11/02 01:21:02;;;;;;;11.37;10.37;;;;;;;;;;4935882;29;20473;-43
2023/11/02 01:23:29;;;;;;;12.63;11.53;;;;;;;;;;4936718;29;20431;-43
2023/11/02 01:25:55;;;;;;;12.47;11.37;;;;;;;;;;4936635;29;20414;-43
2023/11/02 01:28:22;;;;;;;12.33;11.27;;;;;;;;;;4936602;29;20508;-43
2023/11/02 01:30:48;;;;;;;11.97;10.97;;;;;;;;;;4935793;29;20858;-43
2023/11/02 01:33:33;;;;;;;13.60;12.50;;;;;;;;;;4936502;29;20479;-44
2023/11/02 01:35:59;;;;;;;12.90;11.80;;;;;;;;;;4936723;29;20802;-43
2023/11/02 01:38:26;;;;;;;12.93;11.83;;;;;;;;;;4936253;29;20423;-43
2023/11/02 01:41:06;;;;;;;11.73;10.73;;;;;;;;;;4935697;29;20429;-43
2023/11/02 01:43:49;;;;;;;13.07;11.93;;;;;;;;;;4936549;29;20423;-43
2023/11/02 01:46:22;;;;;;;11.77;10.77;;;;;;;;;;4936507;29;20410;-43
2023/11/02 01:48:53;;;;;;;12.00;10.90;;;;;;;;;;4936192;29;20423;-44
2023/11/02 01:51:23;;;;;;;12.90;11.80;;;;;;;;;;4935556;29;20432;-43
2023/11/02 01:53:53;;;;;;;13.03;12.03;;;;;;;;;;4935677;29;20407;-44
2023/11/02 01:56:38;;;;;;;12.33;11.23;;;;;;;;;;4936046;29;20404;-43
2023/11/02 01:59:10;;;;;;;16.20;14.60;;;;;;;;;;4935564;29;20544;-43
2023/11/02 02:01:41;;;;;;;13.50;12.40;;;;;;;;;;4931240;29;20453;-43
2023/11/02 02:04:15;;;;;;;13.20;12.00;;;;;;;;;;4938294;29;20396;-43
2023/11/02 02:06:44;;;;;;;14.57;13.10;;;;;;;;;;4943206;29;20454;-43
2023/11/02 02:09:19;;;;;;;14.93;13.47;;;;;;;;;;4933760;29;20445;-43
2023/11/02 02:11:51;;;;;;;12.63;11.57;;;;;;;;;;4936663;29;20431;-43
2023/11/02 02:14:32;;;;;;;12.87;11.77;;;;;;;;;;4939211;29;20512;-43
2023/11/02 02:17:02;;;;;;;12.43;11.43;;;;;;;;;;4940812;29;20408;-43
2023/11/02 02:19:36;;;;;;;13.73;12.43;;;;;;;;;;4939879;29;20420;-43
2023/11/02 02:22:22;;;;;;;12.70;11.60;;;;;;;;;;4936221;29;20409;-43
2023/11/02 02:24:49;;;;;;;12.67;11.63;;;;;;;;;;4937310;29;20968;-43
2023/11/02 02:27:32;;;;;;;12.73;11.70;;;;;;;;;;4935492;29;20498;-43
2023/11/02 02:30:07;;;;;;;15.60;14.30;;;;;;;;;;4935356;29;20764;-43
2023/11/02 02:32:52;;;;;;;13.60;12.40;;;;;;;;;;4930813;29;20884;-43
2023/11/02 02:35:30;;;;;;;11.23;10.30;;;;;;;;;;4928858;29;20412;-43
2023/11/02 02:38:00;;;;;;;12.20;11.20;;;;;;;;;;4934862;29;20420;-43
2023/11/02 02:40:33;;;;;;;13.17;12.07;;;;;;;;;;4936397;29;20802;-43
2023/11/02 02:43:00;;;;;;;12.83;11.83;;;;;;;;;;4938550;29;20507;-43
2023/11/02 02:45:27;;;;;;;15.07;13.97;;;;;;;;;;4940296;29;20608;-43
2023/11/02 02:47:54;;;;;;;14.73;13.67;;;;;;;;;;4941599;28;20973;-44
2023/11/02 02:50:22;;;;;;;15.93;14.83;;;;;;;;;;4934658;29;20432;-43
2023/11/02 02:52:50;;;;;;;17.53;16.23;;;;;;;;;;4936937;29;20558;-42
2023/11/02 02:55:18;;;;;;;16.73;15.43;;;;;;;;;;4934971;29;20447;-43
2023/11/02 02:57:46;;;;;;;15.03;13.93;;;;;;;;;;4937487;29;20414;-43
2023/11/02 03:00:15;;;;;;;13.83;12.73;;;;;;;;;;4939387;29;20434;-43
2023/11/02 03:02:42;;;;;;;13.30;12.20;;;;;;;;;;4941437;29;20794;-44
2023/11/02 03:05:10;;;;;;;11.50;10.50;;;;;;;;;;4934532;29;20413;-43
2023/11/02 03:07:37;;;;;;;11.83;10.83;;;;;;;;;;4936575;29;20900;-43
2023/11/02 03:10:06;;;;;;;10.87;9.87;;;;;;;;;;4936777;29;20432;-43
2023/11/02 03:12:36;;;;;;;11.00;10.07;;;;;;;;;;4934635;28;20416;-43
2023/11/02 03:15:05;;;;;;;11.47;10.57;;;;;;;;;;4936086;29;20438;-43
2023/11/02 03:17:37;;;;;;;11.13;10.23;;;;;;;;;;4929970;29;20912;-43
2023/11/02 03:20:06;;;;;;;11.53;10.53;;;;;;;;;;4933239;29;20443;-44
2023/11/02 03:22:32;;;;;;;11.60;10.60;;;;;;;;;;4933907;29;20426;-43
2023/11/02 03:25:01;;;;;;;11.37;10.37;;;;;;;;;;4938149;29;20475;-44
2023/11/02 03:27:45;;;;;;;11.27;10.23;;;;;;;;;;4939508;29;21023;-43
2023/11/02 03:30:21;;;;;;;13.00;11.87;;;;;;;;;;4933134;29;20461;-44
2023/11/02 03:32:55;;;;;;;10.80;9.80;;;;;;;;;;4934731;29;20415;-43
2023/11/02 03:35:42;;;;;;;11.40;10.37;;;;;;;;;;4936344;29;20951;-43
2023/11/02 03:38:16;;;;;;;10.13;9.23;;;;;;;;;;4926643;29;20450;-43
2023/11/02 03:41:00;;;;;;;10.93;9.93;;;;;;;;;;4933412;29;20441;-43
2023/11/02 03:43:28;;;;;;;9.63;8.80;;;;;;;;;;4939029;28;20430;-43
2023/11/02 03:45:54;;;;;;;11.83;10.77;;;;;;;;;;4936136;29;20415;-43
2023/11/02 03:48:39;;;;;;;9.30;8.40;;;;;;;;;;4934154;29;20465;-43
2023/11/02 03:51:13;;;;;;;9.60;8.70;;;;;;;;;;4933238;29;20449;-43
2023/11/02 03:53:42;;;;;;;11.10;10.10;;;;;;;;;;4937760;28;20449;-44
2023/11/02 03:56:28;;;;;;;11.47;10.47;;;;;;;;;;4936776;29;20425;-43
2023/11/02 03:58:54;;;;;;;10.37;9.40;;;;;;;;;;4939537;29;20713;-43
2023/11/02 04:01:39;;;;;;;11.03;10.10;;;;;;;;;;4933765;29;20447;-43
2023/11/02 04:04:06;;;;;;;12.30;11.30;;;;;;;;;;4936179;29;20487;-43
2023/11/02 04:06:47;;;;;;;11.67;10.63;;;;;;;;;;4937443;29;20479;-43
2023/11/02 04:09:15;;;;;;;16.10;14.53;;;;;;;;;;4931532;29;20420;-43
2023/11/02 04:12:00;;;;;;;11.97;10.87;;;;;;;;;;4939421;29;20461;-45
2023/11/02 04:14:26;;;;;;;10.80;9.90;;;;;;;;;;4934237;29;20474;-44
2023/11/02 04:16:52;;;;;;;11.70;10.67;;;;;;;;;;4938066;29;20935;-43
2023/11/02 04:19:19;;;;;;;17.70;15.90;;;;;;;;;;4936645;29;20925;-43
2023/11/02 04:21:45;;;;;;;12.53;11.50;;;;;;;;;;4937358;29;20437;-43
2023/11/02 04:24:11;;;;;;;13.60;12.50;;;;;;;;;;4937318;29;20937;-44
2023/11/02 04:26:37;;;;;;;12.90;12.00;;;;;;;;;;4937259;29;20408;-43
2023/11/02 04:29:03;;;;;;;12.60;11.60;;;;;;;;;;4937140;29;20418;-43
2023/11/02 04:31:29;;;;;;;14.70;13.53;;;;;;;;;;4938609;29;20428;-44
2023/11/02 04:33:55;;;;;;;14.03;13.03;;;;;;;;;;4937193;29;20963;-43
2023/11/02 04:36:21;;;;;;;14.03;12.87;;;;;;;;;;4937076;29;20414;-43
2023/11/02 04:38:52;;;;;;;15.63;14.43;;;;;;;;;;4937031;29;20418;-43
2023/11/02 04:41:18;;;;;;;14.33;13.23;;;;;;;;;;4930153;29;20494;-43
2023/11/02 04:43:44;;;;;;;15.13;13.97;;;;;;;;;;4937122;29;20472;-43
2023/11/02 04:46:10;;;;;;;15.07;13.97;;;;;;;;;;4938887;29;20416;-43
2023/11/02 04:48:36;;;;;;;14.80;13.60;;;;;;;;;;4940292;29;20468;-43
2023/11/02 04:51:02;;;;;;;14.40;13.27;;;;;;;;;;4941035;29;20913;-43
2023/11/02 04:53:28;;;;;;;16.67;15.40;;;;;;;;;;4941731;29;20621;-43
2023/11/02 04:55:54;;;;;;;15.70;14.60;;;;;;;;;;4938381;29;20790;-43
2023/11/02 04:58:20;;;;;;;16.00;14.80;;;;;;;;;;4936769;29;20412;-43
2023/11/02 05:00:46;;;;;;;16.60;15.40;;;;;;;;;;4937578;29;20444;-44
2023/11/02 05:03:12;;;;;;;18.63;17.13;;;;;;;;;;4937721;29;20432;-44
2023/11/02 05:05:38;;;;;;;14.90;13.70;;;;;;;;;;4934732;29;20804;-45
2023/11/02 05:08:08;;;;;;;14.50;13.40;;;;;;;;;;4936425;29;21105;-42
2023/11/02 05:10:35;;;;;;;14.60;13.43;;;;;;;;;;4935688;29;20449;-43
2023/11/02 05:13:01;;;;;;;15.60;14.37;;;;;;;;;;4937497;29;20435;-43
2023/11/02 05:15:28;;;;;;;17.17;15.93;;;;;;;;;;4941486;29;20834;-43
2023/11/02 05:17:54;;;;;;;20.57;19.13;;;;;;;;;;4936324;29;20431;-43
2023/11/02 05:20:21;;;;;;;17.77;16.50;;;;;;;;;;4935376;29;20435;-43
2023/11/02 05:22:47;;;;;;;16.40;15.20;;;;;;;;;;4936009;29;20440;-43
2023/11/02 05:25:13;;;;;;;16.07;14.93;;;;;;;;;;4936490;29;20858;-43
2023/11/02 05:27:39;;;;;;;17.40;16.20;;;;;;;;;;4935447;29;20459;-43
2023/11/02 05:30:06;;;;;;;15.83;14.63;;;;;;;;;;4935326;29;20428;-43
2023/11/02 05:32:32;;;;;;;14.30;13.17;;;;;;;;;;4936109;29;20409;-43
2023/11/02 05:34:58;;;;;;;14.20;13.20;;;;;;;;;;4935828;29;20768;-43
2023/11/02 05:37:24;;;;;;;16.40;15.20;;;;;;;;;;4936020;29;20467;-43
2023/11/02 05:39:50;;;;;;;15.87;14.67;;;;;;;;;;4935283;29;20442;-43
2023/11/02 05:42:16;;;;;;;14.63;13.47;;;;;;;;;;4935872;29;20437;-43
2023/11/02 05:44:42;;;;;;;13.87;12.87;;;;;;;;;;4935786;29;20879;-43
2023/11/02 05:47:08;;;;;;;13.73;12.67;;;;;;;;;;4935825;29;20813;-43
2023/11/02 05:49:34;;;;;;;15.63;14.43;;;;;;;;;;4934875;29;20549;-43
2023/11/02 05:52:00;;;;;;;15.90;14.70;;;;;;;;;;4935755;29;20480;-43
2023/11/02 05:54:26;;;;;;;16.53;15.37;;;;;;;;;;4935621;29;20905;-43
2023/11/02 05:56:52;;;;;;;17.47;16.20;;;;;;;;;;4935547;29;20418;-43
2023/11/02 05:59:18;;;;;;;26.17;24.03;;;;;;;;;;4934784;29;20428;-43
2023/11/02 06:01:44;;;;;;;21.07;19.67;;;;;;;;;;4935448;29;20492;-44
2023/11/02 06:04:10;;;;;;;19.97;18.67;;;;;;;;;;4935356;29;20413;-43
2023/11/02 06:06:36;;;;;;;21.30;19.90;;;;;;;;;;4935395;29;20550;-43
2023/11/02 06:09:03;;;;;;;24.57;22.87;;;;;;;;;;4935041;29;20501;-44
2023/11/02 06:11:28;;;;;;;20.67;19.27;;;;;;;;;;4930309;29;20420;-44
2023/11/02 06:13:55;;;;;;;19.73;18.43;;;;;;;;;;4935254;29;20512;-43
2023/11/02 06:16:23;;;;;;;19.00;17.70;;;;;;;;;;4935326;29;20783;-44
2023/11/02 06:18:49;;;;;;;21.33;19.87;;;;;;;;;;4935070;29;20426;-43
2023/11/02 06:21:16;;;;;;;18.83;17.53;;;;;;;;;;4934568;29;20524;-44
2023/11/02 06:23:42;;;;;;;21.67;20.37;;;;;;;;;;4934906;29;20444;-45
2023/11/02 06:26:08;;;;;;;17.40;16.20;;;;;;;;;;4935208;29;20501;-43
2023/11/02 06:28:34;;;;;;;16.90;15.70;;;;;;;;;;4934985;29;20473;-44
2023/11/02 06:31:00;;;;;;;16.50;15.30;;;;;;;;;;4934159;29;20920;-43
2023/11/02 06:33:30;;;;;;;20.27;18.80;;;;;;;;;;4934741;29;20495;-42
2023/11/02 06:35:56;;;;;;;16.30;15.10;;;;;;;;;;4934927;29;20812;-44
2023/11/02 06:38:22;;;;;;;17.93;16.53;;;;;;;;;;4934883;29;20496;-43
2023/11/02 06:40:49;;;;;;;15.93;14.73;;;;;;;;;;4933326;29;20468;-43
2023/11/02 06:43:15;;;;;;;17.17;15.80;;;;;;;;;;4933872;29;20428;-43
2023/11/02 06:45:41;;;;;;;18.73;17.37;;;;;;;;;;4934110;29;20492;-44
2023/11/02 06:48:07;;;;;;;16.33;15.13;;;;;;;;;;4934202;29;20538;-44
2023/11/02 06:50:33;;;;;;;16.77;15.47;;;;;;;;;;4933293;29;21016;-44
2023/11/02 06:52:59;;;;;;;22.77;20.67;;;;;;;;;;4932130;29;20534;-44
2023/11/02 06:55:25;;;;;;;17.27;15.97;;;;;;;;;;4926776;29;20486;-44
2023/11/02 06:57:51;;;;;;;18.30;17.00;;;;;;;;;;4931891;29;20503;-45
2023/11/02 07:00:17;;;;;;;22.27;20.57;;;;;;;;;;4931410;29;20907;-44
2023/11/02 07:02:43;;;;;;;21.50;19.90;;;;;;;;;;4932175;29;20418;-44
2023/11/02 07:05:10;;;;;;;20.53;19.30;;;;;;;;;;4931113;29;20488;-43
2023/11/02 07:07:38;;;;;;;22.03;20.53;;;;;;;;;;4930213;29;20841;-45
2023/11/02 07:10:05;;;;;;;23.20;21.70;;;;;;;;;;4933548;29;20463;-45
2023/11/02 07:12:31;;;;;;;20.50;19.10;;;;;;;;;;4934462;29;20404;-45
2023/11/02 07:14:57;;;;;;;20.37;19.07;;;;;;;;;;4934283;29;20419;-44
2023/11/02 07:17:23;;;;;;;18.33;17.03;;;;;;;;;;4935515;29;20444;-44
2023/11/02 07:19:49;;;;;;;19.67;18.37;;;;;;;;;;4935733;29;20983;-44
2023/11/02 07:22:15;;;;;;;19.40;18.10;;;;;;;;;;4934322;29;21050;-45
2023/11/02 07:24:41;;;;;;;20.33;18.97;;;;;;;;;;4934220;29;20952;-44
2023/11/02 07:27:11;;;;;;;22.57;20.87;;;;;;;;;;4934129;29;20662;-43
2023/11/02 07:29:36;;;;;;;16.20;14.97;;;;;;;;;;4933607;29;20416;-44
2023/11/02 07:32:03;;;;;;;17.20;16.00;;;;;;;;;;4934294;28;20925;-44
2023/11/02 07:34:29;;;;;;;14.47;13.47;;;;;;;;;;4934190;29;20787;-44
2023/11/02 07:36:56;;;;;;;13.70;12.60;;;;;;;;;;4933815;29;20430;-44
2023/11/02 07:39:22;;;;;;;20.13;18.33;;;;;;;;;;4933426;29;20432;-44
2023/11/02 07:41:48;;;;;;;13.80;12.63;;;;;;;;;;4934320;29;20508;-43
2023/11/02 07:44:14;;;;;;;12.37;11.27;;;;;;;;;;4934198;29;20420;-44
2023/11/02 07:46:40;;;;;;;13.50;12.40;;;;;;;;;;4934045;29;20423;-44
2023/11/02 07:49:06;;;;;;;37.80;34.17;;;;;;;;;;4933860;29;20407;-44
2023/11/02 07:51:32;;;;;;;50.93;45.63;;;;;;;;;;4935709;29;20478;-45
2023/11/02 07:53:58;;;;;;;54.00;48.00;;;;;;;;;;4937635;29;20422;-46
2023/11/02 07:56:25;;;;;;;51.10;45.20;;;;;;;;;;4937829;29;20485;-44
2023/11/02 07:58:51;;;;;;;18.70;17.30;;;;;;;;;;4937742;29;20433;-44
2023/11/02 08:01:18;;;;;;;46.27;41.33;;;;;;;;;;4937010;29;20533;-44
2023/11/02 08:03:44;;;;;;;43.67;39.17;;;;;;;;;;4937618;29;20423;-44
2023/11/02 08:06:10;;;;;;;59.47;45.70;;;;;;;;;;4938150;29;20495;-44
2023/11/02 08:08:37;;;;;;;67.43;48.07;;;;;;;;;;4938198;29;20454;-44
2023/11/02 08:11:03;;;;;;;36.40;32.60;;;;;;;;;;4936793;29;20443;-45
2023/11/02 08:13:30;;;;;;;15.50;14.30;;;;;;;;;;4937582;29;20423;-45
2023/11/02 08:15:57;;;;;;;18.97;17.50;;;;;;;;;;4935587;29;20970;-45
2023/11/02 08:18:23;;;;;;;23.20;21.53;;;;;;;;;;4937443;29;20494;-45
2023/11/02 08:20:49;;;;;;;12.70;11.60;;;;;;;;;;4936398;29;20439;-44
2023/11/02 08:23:15;;;;;;;13.60;12.50;;;;;;;;;;4937144;29;20463;-44
2023/11/02 08:25:41;;;;;;;14.13;13.03;;;;;;;;;;4937281;29;20953;-44
2023/11/02 08:28:07;;;;;;;12.37;11.27;;;;;;;;;;4937283;29;20466;-44
2023/11/02 08:30:33;;;;;;;12.07;10.97;;;;;;;;;;4936501;29;20438;-44
2023/11/02 08:32:59;;;;;;;18.87;17.47;;;;;;;;;;4940522;28;20738;-44
2023/11/02 08:35:25;;;;;;;17.60;16.27;;;;;;;;;;4942076;29;20796;-44
2023/11/02 08:37:52;;;;;;;23.80;21.90;;;;;;;;;;4943434;28;20786;-45
2023/11/02 08:40:19;;;;;;;17.30;16.00;;;;;;;;;;4936378;29;20527;-44
2023/11/02 08:42:45;;;;;;;53.83;44.70;;;;;;;;;;4938901;29;20469;-44
2023/11/02 08:45:15;;;;;;;38.87;35.33;;;;;;;;;;4937213;29;20502;-45
2023/11/02 08:47:41;;;;;;;51.77;42.90;;;;;;;;;;4940119;29;20468;-45
2023/11/02 08:50:08;;;;;;;43.97;39.27;;;;;;;;;;4940897;29;20427;-44
2023/11/02 08:52:34;;;;;;;49.20;41.67;;;;;;;;;;4943307;29;20911;-45
2023/11/02 08:55:00;;;;;;;55.97;43.43;;;;;;;;;;4936896;29;20507;-44
2023/11/02 08:57:26;;;;;;;43.80;39.40;;;;;;;;;;4934367;29;20441;-44
2023/11/02 08:59:52;;;;;;;61.23;45.60;;;;;;;;;;4937513;29;20951;-44
2023/11/02 09:02:19;;;;;;;49.10;42.20;;;;;;;;;;4937542;29;20413;-45
2023/11/02 09:04:45;;;;;;;40.83;37.20;;;;;;;;;;4939171;29;20412;-45
2023/11/02 09:07:11;;;;;;;39.27;35.43;;;;;;;;;;4946632;29;20463;-45
2023/11/02 09:09:36;;;;;;;36.90;33.70;;;;;;;;;;4939675;29;20525;-45
2023/11/02 09:12:02;;;;;;;38.63;34.90;;;;;;;;;;4938130;29;20419;-45
2023/11/02 09:14:28;;;;;;;38.00;34.30;;;;;;;;;;4939570;29;20411;-45
2023/11/02 09:16:55;;;;;;;33.20;30.60;;;;;;;;;;4941015;29;20442;-45
2023/11/02 09:19:20;;;;;;;41.27;37.67;;;;;;;;;;4938128;29;20413;-45
2023/11/02 09:21:47;;;;;;;16.10;14.80;;;;;;;;;;4939240;29;20445;-45
2023/11/02 09:24:14;;;;;;;12.57;11.50;;;;;;;;;;4942895;29;20823;-44
2023/11/02 09:26:41;;;;;;;11.20;10.20;;;;;;;;;;4937748;29;20418;-44
2023/11/02 09:29:07;;;;;;;15.93;14.53;;;;;;;;;;4938999;28;20408;-44
2023/11/02 09:31:33;;;;;;;14.90;13.80;;;;;;;;;;4940661;29;20487;-44
2023/11/02 09:34:02;;;;;;;16.20;14.93;;;;;;;;;;4942208;29;20414;-45
2023/11/02 09:36:30;;;;;;;13.80;12.70;;;;;;;;;;4942367;28;20497;-45
2023/11/02 09:38:59;;;;;;;13.63;12.53;;;;;;;;;;4937355;29;20784;-45
2023/11/02 09:41:26;;;;;;;14.30;13.20;;;;;;;;;;4936530;29;20520;-45
2023/11/02 09:43:52;;;;;;;16.37;14.90;;;;;;;;;;4937748;29;20949;-45
2023/11/02 09:46:19;;;;;;;11.77;10.83;;;;;;;;;;4940568;28;20423;-44
2023/11/02 09:48:45;;;;;;;11.90;10.90;;;;;;;;;;4941844;29;20819;-45
2023/11/02 09:51:11;;;;;;;10.90;9.97;;;;;;;;;;4942825;29;20434;-45
2023/11/02 09:53:37;;;;;;;10.93;9.93;;;;;;;;;;4937389;29;20502;-45
2023/11/02 09:56:04;;;;;;;11.20;10.20;;;;;;;;;;4938704;29;20411;-46
2023/11/02 09:58:30;;;;;;;14.23;13.13;;;;;;;;;;4938933;29;20499;-45
2023/11/02 10:00:56;;;;;;;13.33;12.27;;;;;;;;;;4935923;29;20458;-45
2023/11/02 10:03:22;;;;;;;14.83;13.83;;;;;;;;;;4935640;29;20410;-44
2023/11/02 10:05:50;;;;;;;18.10;16.87;;;;;;;;;;4935674;29;20837;-45
2023/11/02 10:08:16;;;;;;;15.37;14.27;;;;;;;;;;4936818;29;20530;-44
2023/11/02 10:10:42;;;;;;;13.77;12.87;;;;;;;;;;4937611;29;20438;-45
2023/11/02 10:13:08;;;;;;;13.30;12.20;;;;;;;;;;4939937;29;20493;-44
2023/11/02 10:15:34;;;;;;;12.67;11.77;;;;;;;;;;4936355;29;20480;-44
2023/11/02 10:18:00;;;;;;;14.17;13.07;;;;;;;;;;4937742;29;21539;-45
2023/11/02 10:20:26;;;;;;;12.80;11.80;;;;;;;;;;4954823;28;20533;-44
2023/11/02 10:22:59;;;;;;;14.87;13.77;;;;;;;;;;4935101;29;20450;-44
2023/11/02 10:25:27;;;;;;;13.20;12.10;;;;;;;;;;4938150;29;20422;-45
2023/11/02 10:27:53;;;;;;;13.50;12.40;;;;;;;;;;4939481;29;20458;-45
2023/11/02 10:30:20;;;;;;;15.57;14.27;;;;;;;;;;4940365;29;20518;-45
2023/11/02 10:32:47;;;;;;;14.93;13.93;;;;;;;;;;4942759;29;20441;-45
2023/11/02 10:35:13;;;;;;;14.40;13.40;;;;;;;;;;4936500;29;20418;-45
2023/11/02 10:37:39;;;;;;;12.17;11.27;;;;;;;;;;4937762;29;20430;-45
2023/11/02 10:40:06;;;;;;;14.90;13.83;;;;;;;;;;4934216;29;20965;-45
2023/11/02 10:42:32;;;;;;;15.67;14.47;;;;;;;;;;4938197;29;20454;-44
2023/11/02 10:44:59;;;;;;;14.83;13.73;;;;;;;;;;4934713;29;20426;-44
2023/11/02 10:47:30;;;;;;;15.37;14.27;;;;;;;;;;4948252;29;20464;-45
2023/11/02 10:49:57;;;;;;;14.87;13.77;;;;;;;;;;4953152;29;20445;-45
2023/11/02 10:52:34;;;;;;;16.43;15.27;;;;;;;;;;4953911;29;20414;-45
2023/11/02 10:55:09;;;;;;;16.90;15.70;;;;;;;;;;4953651;29;20420;-44
2023/11/02 10:57:37;;;;;;;17.23;16.03;;;;;;;;;;4953780;29;20416;-45
2023/11/02 11:00:07;;;;;;;18.50;17.20;;;;;;;;;;4952996;29;20425;-45
2023/11/02 11:02:35;;;;;;;17.73;16.53;;;;;;;;;;4953843;28;20412;-45
2023/11/02 11:05:04;;;;;;;16.20;15.10;;;;;;;;;;4953731;29;20411;-45
2023/11/02 11:07:31;;;;;;;17.17;16.00;;;;;;;;;;4936619;29;20465;-45
2023/11/02 11:09:57;;;;;;;21.67;20.30;;;;;;;;;;4933460;29;20804;-45
2023/11/02 11:12:24;;;;;;;22.73;21.33;;;;;;;;;;4946024;29;20831;-45
2023/11/02 11:14:50;;;;;;;23.00;21.60;;;;;;;;;;4953614;28;20468;-45
2023/11/02 11:17:16;;;;;;;24.37;22.87;;;;;;;;;;4936140;29;20422;-45
2023/11/02 11:19:42;;;;;;;25.00;23.47;;;;;;;;;;4936627;29;20476;-45
2023/11/02 11:22:10;;;;;;;23.77;22.27;;;;;;;;;;4953384;28;20785;-45
2023/11/02 11:24:36;;;;;;;24.40;22.90;;;;;;;;;;4953696;29;20951;-45
2023/11/02 11:27:04;;;;;;;20.90;19.50;;;;;;;;;;4959134;28;20510;-45
2023/11/02 11:29:39;;;;;;;22.57;21.00;;;;;;;;;;4959109;28;20410;-45
2023/11/02 11:32:08;;;;;;;18.63;17.50;;;;;;;;;;4959906;28;20867;-45
2023/11/02 11:34:52;;;;;;;19.17;17.93;;;;;;;;;;4959684;28;20417;-45
2023/11/02 11:37:40;;;;;;;19.30;18.03;;;;;;;;;;4959688;28;20460;-44
2023/11/02 11:40:07;;;;;;;21.23;19.93;;;;;;;;;;4959119;28;20444;-45
2023/11/02 11:42:52;;;;;;;24.47;22.97;;;;;;;;;;4960150;28;20418;-45
2023/11/02 11:45:55;;;;;;;22.57;21.10;;;;;;;;;;4953443;29;20429;-45
2023/11/02 11:48:34;;;;;;;35.43;32.97;;;;;;;;;;4940573;29;20825;-45
2023/11/02 11:51:00;;;;;;;45.33;42.73;;;;;;;;;;4946558;28;20516;-45
2023/11/02 11:53:26;;;;;;;49.87;46.93;;;;;;;;;;4959632;28;20408;-45
2023/11/02 11:55:53;;;;;;;37.73;35.63;;;;;;;;;;4959727;28;20449;-45
2023/11/02 11:58:42;;;;;;;31.27;29.47;;;;;;;;;;4959615;28;20385;-45
2023/11/02 12:01:14;;;;;;;29.35;27.55;;;;;;;;;;4920466;29;20429;-44
2023/11/02 12:03:40;;;;;;;29.67;27.97;;;;;;;;;;4957932;29;20705;-45
2023/11/02 12:06:10;;;;;;;31.63;29.77;;;;;;;;;;4959365;28;20425;-45
2023/11/02 12:08:43;;;;;;;32.40;30.70;;;;;;;;;;4959451;29;20470;-46
2023/11/02 12:11:12;;;;;;;42.20;39.90;;;;;;;;;;4958837;28;20446;-46
2023/11/02 12:13:40;;;;;;;38.83;36.83;;;;;;;;;;4959467;29;20387;-45
2023/11/02 12:16:06;;;;;;;35.10;33.30;;;;;;;;;;4957174;28;20475;-45
2023/11/02 12:18:33;;;;;;;33.67;31.77;;;;;;;;;;4959359;28;20421;-44
2023/11/02 12:21:00;;;;;;;29.10;27.40;;;;;;;;;;4958675;28;20795;-45
2023/11/02 12:23:32;;;;;;;34.33;32.43;;;;;;;;;;4959382;29;20525;-45
2023/11/02 12:26:00;;;;;;;31.77;29.97;;;;;;;;;;4959282;28;20428;-45
2023/11/02 12:28:26;;;;;;;33.00;31.10;;;;;;;;;;4949369;28;20502;-45
2023/11/02 12:30:52;;;;;;;31.70;29.90;;;;;;;;;;4928190;29;20442;-45
2023/11/02 12:33:21;;;;;;;31.57;29.87;;;;;;;;;;4939516;28;20858;-46
2023/11/02 12:35:51;;;;;;;31.17;29.30;;;;;;;;;;4959161;29;20420;-46
2023/11/02 12:38:30;;;;;;;29.10;27.50;;;;;;;;;;4956574;28;20419;-45
2023/11/02 12:40:56;;;;;;;29.53;27.83;;;;;;;;;;4955526;28;20444;-45
2023/11/02 12:43:23;;;;;;;32.70;30.83;;;;;;;;;;4956514;29;20419;-45
2023/11/02 12:45:54;;;;;;;33.27;31.37;;;;;;;;;;4956220;29;20418;-45
2023/11/02 12:48:41;;;;;;;35.87;33.87;;;;;;;;;;4938691;29;21059;-46
2023/11/02 12:51:16;;;;;;;33.57;31.73;;;;;;;;;;4953068;29;20439;-45
2023/11/02 12:53:43;;;;;;;32.70;30.87;;;;;;;;;;4955799;28;20969;-45
2023/11/02 12:56:12;;;;;;;34.37;32.50;;;;;;;;;;4955667;28;20485;-44
2023/11/02 12:58:38;;;;;;;38.47;36.43;;;;;;;;;;4946011;29;20484;-45
2023/11/02 13:01:04;;;;;;;41.57;39.27;;;;;;;;;;4935924;29;20860;-44
2023/11/02 13:03:30;;;;;;;49.73;46.83;;;;;;;;;;4940726;29;20418;-46
2023/11/02 13:05:56;;;;;;;36.33;34.23;;;;;;;;;;4954353;28;20439;-45
2023/11/02 13:08:23;;;;;;;39.13;37.03;;;;;;;;;;4936439;29;20949;-46
2023/11/02 13:10:49;;;;;;;33.10;31.30;;;;;;;;;;4953448;29;20440;-45
2023/11/02 13:13:15;;;;;;;38.93;36.83;;;;;;;;;;4955543;28;20435;-45
2023/11/02 13:15:41;;;;;;;36.37;34.40;;;;;;;;;;4940238;29;20423;-46
2023/11/02 13:18:09;;;;;;;35.73;33.77;;;;;;;;;;4941890;29;20454;-45
2023/11/02 13:20:35;;;;;;;37.90;35.80;;;;;;;;;;4941876;29;20445;-45
2023/11/02 13:23:01;;;;;;;46.90;44.40;;;;;;;;;;4937026;29;20438;-46
2023/11/02 13:25:30;;;;;;;32.60;30.80;;;;;;;;;;4936952;29;20415;-45
2023/11/02 13:27:56;;;;;;;38.00;35.90;;;;;;;;;;4937487;29;20492;-45
2023/11/02 13:30:22;;;;;;;40.70;38.57;;;;;;;;;;4947231;29;20426;-45
2023/11/02 13:32:54;;;;;;;34.83;33.03;;;;;;;;;;4941600;29;20387;-45
2023/11/02 13:35:20;;;;;;;37.20;35.13;;;;;;;;;;4942847;29;20456;-45
2023/11/02 13:37:47;;;;;;;32.87;31.00;;;;;;;;;;4936557;29;20429;-45
2023/11/02 13:40:14;;;;;;;30.70;29.10;;;;;;;;;;4936517;29;20444;-45
2023/11/02 13:42:46;;;;;;;33.53;31.73;;;;;;;;;;4936086;29;20424;-45
2023/11/02 13:45:12;;;;;;;31.33;29.60;;;;;;;;;;4930638;29;20928;-45
2023/11/02 13:47:38;;;;;;;33.87;32.07;;;;;;;;;;4939337;29;20457;-45
2023/11/02 13:50:06;;;;;;;34.87;32.97;;;;;;;;;;4941351;29;20480;-45
2023/11/02 13:52:32;;;;;;;32.43;30.67;;;;;;;;;;4936163;29;20829;-43
2023/11/02 13:55:01;;;;;;;35.43;33.43;;;;;;;;;;4937815;29;20498;-45
2023/11/02 13:57:27;;;;;;;37.13;35.13;;;;;;;;;;4935969;29;20415;-45
2023/11/02 13:59:53;;;;;;;34.37;32.53;;;;;;;;;;4934915;29;20476;-45
2023/11/02 14:02:20;;;;;;;33.57;31.67;;;;;;;;;;4939714;29;20975;-44
2023/11/02 14:04:46;;;;;;;34.80;32.80;;;;;;;;;;4938628;29;20415;-44
2023/11/02 14:07:13;;;;;;;32.40;30.60;;;;;;;;;;4935642;29;20936;-44
2023/11/02 14:09:39;;;;;;;29.30;27.50;;;;;;;;;;5012034;23;21041;-43
2023/11/02 14:12:05;;;;;;;26.47;24.97;;;;;;;;;;5012797;28;20403;-43
2023/11/02 14:14:31;;;;;;;31.23;29.43;;;;;;;;;;5006239;28;20930;-43
2023/11/02 14:16:57;;;;;;;33.03;31.13;;;;;;;;;;5005610;28;20445;-43
2023/11/02 14:19:23;;;;;;;35.37;32.93;;;;;;;;;;4997967;28;20432;-44
2023/11/02 14:21:49;;;;;;;29.13;27.43;;;;;;;;;;4993030;28;20423;-43
2023/11/02 14:24:15;;;;;;;28.50;26.87;;;;;;;;;;4993075;28;20462;-43
2023/11/02 14:26:43;;;;;;;27.00;25.50;;;;;;;;;;4993008;28;20412;-44